sensor_id;sensor_type;location;lat;lon;timestamp;P1;durP1;ratioP1;P2;durP2;ratioP2
71080;SDS011;58740;50.672;18.690;2022-07-18T00:01:30;5.70;;;2.60;;
71080;SDS011;58740;50.672;18.690;2022-07-18T00:03:58;7.70;;;2.60;;
71080;SDS011;58740;50.672;18.690;2022-07-18T00:06:26;6.90;;;2.60;;
71080;SDS011;58740;50.672;18.690;2022-07-18T00:08:55;6.90;;;3.00;;
71080;SDS011;58740;50.672;18.690;2022-07-18T00:11:23;8.40;;;3.00;;
71080;SDS011;58740;50.672;18.690;2022-07-18T00:13:50;9.40;;;3.20;;
71080;SDS011;58740;50.672;18.690;2022-07-18T00:16:19;8.70;;;2.90;;
71080;SDS011;58740;50.672;18.690;2022-07-18T00:18:46;6.90;;;3.20;;
71080;SDS011;58740;50.672;18.690;2022-07-18T00:21:15;6.90;;;3.10;;
71080;SDS011;58740;50.672;18.690;2022-07-18T00:23:43;9.10;;;3.10;;
71080;SDS011;58740;50.672;18.690;2022-07-18T00:26:11;8.50;;;2.90;;
71080;SDS011;58740;50.672;18.690;2022-07-18T00:28:39;11.70;;;3.40;;
71080;SDS011;58740;50.672;18.690;2022-07-18T00:31:06;7.40;;;3.20;;
71080;SDS011;58740;50.672;18.690;2022-07-18T00:33:34;8.50;;;3.40;;
71080;SDS011;58740;50.672;18.690;2022-07-18T00:36:02;8.90;;;3.00;;
71080;SDS011;58740;50.672;18.690;2022-07-18T00:38:30;13.10;;;3.40;;
71080;SDS011;58740;50.672;18.690;2022-07-18T00:40:58;9.00;;;3.20;;
71080;SDS011;58740;50.672;18.690;2022-07-18T00:43:25;5.80;;;2.40;;
71080;SDS011;58740;50.672;18.690;2022-07-18T00:45:53;7.50;;;3.10;;
71080;SDS011;58740;50.672;18.690;2022-07-18T00:48:21;7.20;;;3.00;;
71080;SDS011;58740;50.672;18.690;2022-07-18T00:50:49;8.50;;;3.50;;
71080;SDS011;58740;50.672;18.690;2022-07-18T00:53:17;7.30;;;3.60;;
71080;SDS011;58740;50.672;18.690;2022-07-18T00:55:45;9.50;;;3.40;;
71080;SDS011;58740;50.672;18.690;2022-07-18T00:58:14;6.90;;;3.10;;
71080;SDS011;58740;50.672;18.690;2022-07-18T01:00:42;7.70;;;3.10;;
71080;SDS011;58740;50.672;18.690;2022-07-18T01:03:28;6.50;;;3.30;;
71080;SDS011;58740;50.672;18.690;2022-07-18T01:05:56;7.20;;;2.60;;
71080;SDS011;58740;50.672;18.690;2022-07-18T01:08:24;9.00;;;3.10;;
71080;SDS011;58740;50.672;18.690;2022-07-18T01:10:51;8.60;;;3.20;;
71080;SDS011;58740;50.672;18.690;2022-07-18T01:13:21;9.50;;;2.90;;
71080;SDS011;58740;50.672;18.690;2022-07-18T01:15:49;8.50;;;3.10;;
71080;SDS011;58740;50.672;18.690;2022-07-18T01:18:17;7.40;;;3.50;;
71080;SDS011;58740;50.672;18.690;2022-07-18T01:20:45;6.70;;;3.10;;
71080;SDS011;58740;50.672;18.690;2022-07-18T01:23:12;9.30;;;3.20;;
71080;SDS011;58740;50.672;18.690;2022-07-18T01:25:40;6.50;;;2.80;;
71080;SDS011;58740;50.672;18.690;2022-07-18T01:28:08;6.60;;;3.30;;
71080;SDS011;58740;50.672;18.690;2022-07-18T01:30:36;7.70;;;3.10;;
71080;SDS011;58740;50.672;18.690;2022-07-18T01:33:04;6.10;;;3.00;;
71080;SDS011;58740;50.672;18.690;2022-07-18T01:35:32;9.20;;;3.40;;
71080;SDS011;58740;50.672;18.690;2022-07-18T01:38:01;7.10;;;3.10;;
71080;SDS011;58740;50.672;18.690;2022-07-18T01:40:30;9.40;;;3.20;;
71080;SDS011;58740;50.672;18.690;2022-07-18T01:42:58;6.20;;;3.20;;
71080;SDS011;58740;50.672;18.690;2022-07-18T01:45:26;9.50;;;3.60;;
71080;SDS011;58740;50.672;18.690;2022-07-18T01:47:54;7.60;;;3.00;;
71080;SDS011;58740;50.672;18.690;2022-07-18T01:50:21;9.10;;;3.00;;
71080;SDS011;58740;50.672;18.690;2022-07-18T01:52:49;7.20;;;2.50;;
71080;SDS011;58740;50.672;18.690;2022-07-18T01:55:17;6.90;;;3.10;;
71080;SDS011;58740;50.672;18.690;2022-07-18T01:57:45;8.90;;;2.60;;
71080;SDS011;58740;50.672;18.690;2022-07-18T02:00:13;6.60;;;2.70;;
71080;SDS011;58740;50.672;18.690;2022-07-18T02:02:41;7.00;;;2.80;;
71080;SDS011;58740;50.672;18.690;2022-07-18T02:05:09;7.90;;;2.40;;
71080;SDS011;58740;50.672;18.690;2022-07-18T02:07:39;11.60;;;3.00;;
71080;SDS011;58740;50.672;18.690;2022-07-18T02:10:11;7.10;;;2.70;;
71080;SDS011;58740;50.672;18.690;2022-07-18T02:12:41;8.00;;;3.80;;
71080;SDS011;58740;50.672;18.690;2022-07-18T02:15:10;7.70;;;3.40;;
71080;SDS011;58740;50.672;18.690;2022-07-18T02:17:40;5.30;;;2.90;;
71080;SDS011;58740;50.672;18.690;2022-07-18T02:20:10;9.20;;;3.40;;
71080;SDS011;58740;50.672;18.690;2022-07-18T02:22:41;9.60;;;3.30;;
71080;SDS011;58740;50.672;18.690;2022-07-18T02:25:10;10.10;;;4.50;;
71080;SDS011;58740;50.672;18.690;2022-07-18T02:27:39;6.90;;;3.50;;
71080;SDS011;58740;50.672;18.690;2022-07-18T02:30:09;8.90;;;3.40;;
71080;SDS011;58740;50.672;18.690;2022-07-18T02:32:37;6.90;;;2.80;;
71080;SDS011;58740;50.672;18.690;2022-07-18T02:35:07;10.40;;;3.40;;
71080;SDS011;58740;50.672;18.690;2022-07-18T02:37:37;6.00;;;3.00;;
71080;SDS011;58740;50.672;18.690;2022-07-18T02:40:07;8.70;;;3.40;;
71080;SDS011;58740;50.672;18.690;2022-07-18T02:42:36;6.60;;;2.90;;
71080;SDS011;58740;50.672;18.690;2022-07-18T02:45:06;6.30;;;3.30;;
71080;SDS011;58740;50.672;18.690;2022-07-18T02:47:35;9.80;;;3.50;;
71080;SDS011;58740;50.672;18.690;2022-07-18T02:50:03;6.90;;;2.60;;
71080;SDS011;58740;50.672;18.690;2022-07-18T02:52:31;9.10;;;3.40;;
71080;SDS011;58740;50.672;18.690;2022-07-18T02:54:58;8.20;;;3.30;;
71080;SDS011;58740;50.672;18.690;2022-07-18T02:57:28;6.70;;;2.90;;
71080;SDS011;58740;50.672;18.690;2022-07-18T02:59:56;7.90;;;3.60;;
71080;SDS011;58740;50.672;18.690;2022-07-18T03:02:23;7.40;;;3.40;;
71080;SDS011;58740;50.672;18.690;2022-07-18T03:04:52;6.80;;;2.90;;
71080;SDS011;58740;50.672;18.690;2022-07-18T03:07:20;8.70;;;3.90;;
71080;SDS011;58740;50.672;18.690;2022-07-18T03:09:47;6.90;;;3.70;;
71080;SDS011;58740;50.672;18.690;2022-07-18T03:12:15;7.20;;;3.00;;
71080;SDS011;58740;50.672;18.690;2022-07-18T03:14:43;8.60;;;3.10;;
71080;SDS011;58740;50.672;18.690;2022-07-18T03:17:11;6.90;;;3.30;;
71080;SDS011;58740;50.672;18.690;2022-07-18T03:19:39;8.60;;;3.70;;
71080;SDS011;58740;50.672;18.690;2022-07-18T03:22:07;7.60;;;2.80;;
71080;SDS011;58740;50.672;18.690;2022-07-18T03:24:34;5.90;;;3.40;;
71080;SDS011;58740;50.672;18.690;2022-07-18T03:27:03;10.10;;;3.20;;
71080;SDS011;58740;50.672;18.690;2022-07-18T03:29:31;5.60;;;3.00;;
71080;SDS011;58740;50.672;18.690;2022-07-18T03:31:58;8.00;;;3.40;;
71080;SDS011;58740;50.672;18.690;2022-07-18T03:34:26;9.90;;;3.20;;
71080;SDS011;58740;50.672;18.690;2022-07-18T03:36:54;8.70;;;3.00;;
71080;SDS011;58740;50.672;18.690;2022-07-18T03:39:21;6.70;;;3.20;;
71080;SDS011;58740;50.672;18.690;2022-07-18T03:41:49;9.40;;;3.60;;
71080;SDS011;58740;50.672;18.690;2022-07-18T03:44:19;6.20;;;3.60;;
71080;SDS011;58740;50.672;18.690;2022-07-18T03:46:46;8.40;;;3.70;;
71080;SDS011;58740;50.672;18.690;2022-07-18T03:49:14;6.80;;;3.20;;
71080;SDS011;58740;50.672;18.690;2022-07-18T03:51:42;8.00;;;3.60;;
71080;SDS011;58740;50.672;18.690;2022-07-18T03:54:09;9.00;;;3.80;;
71080;SDS011;58740;50.672;18.690;2022-07-18T03:56:37;7.10;;;3.60;;
71080;SDS011;58740;50.672;18.690;2022-07-18T03:59:05;7.90;;;3.80;;
71080;SDS011;58740;50.672;18.690;2022-07-18T04:01:33;8.30;;;3.70;;
71080;SDS011;58740;50.672;18.690;2022-07-18T04:04:01;7.10;;;3.50;;
71080;SDS011;58740;50.672;18.690;2022-07-18T04:06:29;7.80;;;3.70;;
71080;SDS011;58740;50.672;18.690;2022-07-18T04:08:57;7.50;;;3.30;;
71080;SDS011;58740;50.672;18.690;2022-07-18T04:11:25;6.50;;;3.60;;
71080;SDS011;58740;50.672;18.690;2022-07-18T04:13:53;10.80;;;3.80;;
71080;SDS011;58740;50.672;18.690;2022-07-18T04:16:22;6.70;;;3.60;;
71080;SDS011;58740;50.672;18.690;2022-07-18T04:18:50;7.60;;;3.50;;
71080;SDS011;58740;50.672;18.690;2022-07-18T04:21:18;6.00;;;3.40;;
71080;SDS011;58740;50.672;18.690;2022-07-18T04:23:46;8.20;;;3.50;;
71080;SDS011;58740;50.672;18.690;2022-07-18T04:26:14;8.30;;;3.80;;
71080;SDS011;58740;50.672;18.690;2022-07-18T04:28:41;7.60;;;3.80;;
71080;SDS011;58740;50.672;18.690;2022-07-18T04:31:09;9.20;;;4.30;;
71080;SDS011;58740;50.672;18.690;2022-07-18T04:33:37;8.80;;;4.20;;
71080;SDS011;58740;50.672;18.690;2022-07-18T04:36:05;10.90;;;4.10;;
71080;SDS011;58740;50.672;18.690;2022-07-18T04:38:33;9.20;;;4.30;;
71080;SDS011;58740;50.672;18.690;2022-07-18T04:41:05;9.20;;;4.30;;
71080;SDS011;58740;50.672;18.690;2022-07-18T04:43:33;9.30;;;4.60;;
71080;SDS011;58740;50.672;18.690;2022-07-18T04:46:01;7.00;;;3.60;;
71080;SDS011;58740;50.672;18.690;2022-07-18T04:48:28;5.70;;;3.50;;
71080;SDS011;58740;50.672;18.690;2022-07-18T04:50:56;9.40;;;4.30;;
71080;SDS011;58740;50.672;18.690;2022-07-18T04:53:24;9.60;;;4.10;;
71080;SDS011;58740;50.672;18.690;2022-07-18T04:55:52;7.40;;;4.00;;
71080;SDS011;58740;50.672;18.690;2022-07-18T04:58:19;11.10;;;4.20;;
71080;SDS011;58740;50.672;18.690;2022-07-18T05:00:48;8.80;;;4.00;;
71080;SDS011;58740;50.672;18.690;2022-07-18T05:03:16;8.30;;;4.20;;
71080;SDS011;58740;50.672;18.690;2022-07-18T05:05:44;10.30;;;4.10;;
71080;SDS011;58740;50.672;18.690;2022-07-18T05:08:12;9.50;;;4.30;;
71080;SDS011;58740;50.672;18.690;2022-07-18T05:10:41;8.10;;;4.40;;
71080;SDS011;58740;50.672;18.690;2022-07-18T05:13:09;9.10;;;4.60;;
71080;SDS011;58740;50.672;18.690;2022-07-18T05:15:37;7.90;;;4.10;;
71080;SDS011;58740;50.672;18.690;2022-07-18T05:18:04;8.10;;;4.60;;
71080;SDS011;58740;50.672;18.690;2022-07-18T05:20:33;13.70;;;6.60;;
71080;SDS011;58740;50.672;18.690;2022-07-18T05:23:06;12.20;;;6.60;;
71080;SDS011;58740;50.672;18.690;2022-07-18T05:25:33;8.60;;;6.10;;
71080;SDS011;58740;50.672;18.690;2022-07-18T05:28:01;9.50;;;4.50;;
71080;SDS011;58740;50.672;18.690;2022-07-18T05:30:29;9.80;;;3.80;;
71080;SDS011;58740;50.672;18.690;2022-07-18T05:32:56;9.90;;;4.80;;
71080;SDS011;58740;50.672;18.690;2022-07-18T05:35:24;8.30;;;3.70;;
71080;SDS011;58740;50.672;18.690;2022-07-18T05:37:52;15.80;;;3.60;;
71080;SDS011;58740;50.672;18.690;2022-07-18T05:40:20;7.20;;;2.80;;
71080;SDS011;58740;50.672;18.690;2022-07-18T05:42:47;8.70;;;3.50;;
71080;SDS011;58740;50.672;18.690;2022-07-18T05:45:24;8.00;;;2.60;;
71080;SDS011;58740;50.672;18.690;2022-07-18T05:47:53;8.20;;;2.70;;
71080;SDS011;58740;50.672;18.690;2022-07-18T05:50:22;5.60;;;2.40;;
71080;SDS011;58740;50.672;18.690;2022-07-18T05:52:52;8.60;;;2.20;;
71080;SDS011;58740;50.672;18.690;2022-07-18T05:55:20;6.40;;;2.40;;
71080;SDS011;58740;50.672;18.690;2022-07-18T05:57:48;6.50;;;2.30;;
71080;SDS011;58740;50.672;18.690;2022-07-18T06:00:17;5.60;;;2.20;;
71080;SDS011;58740;50.672;18.690;2022-07-18T06:02:49;7.20;;;2.10;;
71080;SDS011;58740;50.672;18.690;2022-07-18T06:05:18;4.40;;;2.10;;
71080;SDS011;58740;50.672;18.690;2022-07-18T06:07:51;5.00;;;1.70;;
71080;SDS011;58740;50.672;18.690;2022-07-18T06:10:20;6.10;;;1.60;;
71080;SDS011;58740;50.672;18.690;2022-07-18T06:12:49;10.30;;;2.00;;
71080;SDS011;58740;50.672;18.690;2022-07-18T06:15:18;4.50;;;1.50;;
71080;SDS011;58740;50.672;18.690;2022-07-18T06:17:46;6.30;;;1.50;;
71080;SDS011;58740;50.672;18.690;2022-07-18T06:20:13;7.60;;;1.80;;
71080;SDS011;58740;50.672;18.690;2022-07-18T06:22:41;6.60;;;1.60;;
71080;SDS011;58740;50.672;18.690;2022-07-18T06:25:10;4.30;;;1.50;;
71080;SDS011;58740;50.672;18.690;2022-07-18T06:27:38;9.60;;;1.60;;
71080;SDS011;58740;50.672;18.690;2022-07-18T06:30:06;6.70;;;1.50;;
71080;SDS011;58740;50.672;18.690;2022-07-18T06:32:37;6.80;;;1.70;;
71080;SDS011;58740;50.672;18.690;2022-07-18T06:35:07;7.90;;;4.00;;
71080;SDS011;58740;50.672;18.690;2022-07-18T06:37:35;13.80;;;6.40;;
71080;SDS011;58740;50.672;18.690;2022-07-18T06:40:03;8.40;;;2.70;;
71080;SDS011;58740;50.672;18.690;2022-07-18T06:42:33;5.40;;;1.30;;
71080;SDS011;58740;50.672;18.690;2022-07-18T06:45:03;4.80;;;1.60;;
71080;SDS011;58740;50.672;18.690;2022-07-18T06:47:39;3.80;;;1.30;;
71080;SDS011;58740;50.672;18.690;2022-07-18T06:50:09;4.00;;;1.20;;
71080;SDS011;58740;50.672;18.690;2022-07-18T06:52:42;4.10;;;1.30;;
71080;SDS011;58740;50.672;18.690;2022-07-18T06:55:12;6.90;;;1.40;;
71080;SDS011;58740;50.672;18.690;2022-07-18T06:57:41;4.10;;;1.20;;
71080;SDS011;58740;50.672;18.690;2022-07-18T07:00:10;4.50;;;1.60;;
71080;SDS011;58740;50.672;18.690;2022-07-18T07:02:45;6.30;;;1.40;;
71080;SDS011;58740;50.672;18.690;2022-07-18T07:05:16;6.20;;;1.30;;
71080;SDS011;58740;50.672;18.690;2022-07-18T07:07:45;4.30;;;1.20;;
71080;SDS011;58740;50.672;18.690;2022-07-18T07:10:16;4.00;;;1.20;;
71080;SDS011;58740;50.672;18.690;2022-07-18T07:12:49;4.80;;;1.40;;
71080;SDS011;58740;50.672;18.690;2022-07-18T07:15:20;5.00;;;1.40;;
71080;SDS011;58740;50.672;18.690;2022-07-18T07:17:50;4.80;;;1.20;;
71080;SDS011;58740;50.672;18.690;2022-07-18T07:20:18;5.40;;;1.40;;
71080;SDS011;58740;50.672;18.690;2022-07-18T07:22:57;4.80;;;1.60;;
71080;SDS011;58740;50.672;18.690;2022-07-18T07:25:26;4.40;;;1.30;;
71080;SDS011;58740;50.672;18.690;2022-07-18T07:27:54;5.50;;;1.40;;
71080;SDS011;58740;50.672;18.690;2022-07-18T07:30:22;4.10;;;1.20;;
71080;SDS011;58740;50.672;18.690;2022-07-18T07:32:50;4.60;;;1.30;;
71080;SDS011;58740;50.672;18.690;2022-07-18T07:35:19;4.80;;;1.40;;
71080;SDS011;58740;50.672;18.690;2022-07-18T07:37:51;4.60;;;1.20;;
71080;SDS011;58740;50.672;18.690;2022-07-18T07:40:23;3.90;;;1.10;;
71080;SDS011;58740;50.672;18.690;2022-07-18T07:42:52;5.20;;;1.00;;
71080;SDS011;58740;50.672;18.690;2022-07-18T07:45:36;4.00;;;1.00;;
71080;SDS011;58740;50.672;18.690;2022-07-18T07:48:05;3.00;;;1.20;;
71080;SDS011;58740;50.672;18.690;2022-07-18T07:50:34;4.20;;;1.20;;
71080;SDS011;58740;50.672;18.690;2022-07-18T07:53:02;4.70;;;1.20;;
71080;SDS011;58740;50.672;18.690;2022-07-18T07:55:31;4.10;;;1.20;;
71080;SDS011;58740;50.672;18.690;2022-07-18T07:57:59;5.50;;;1.20;;
71080;SDS011;58740;50.672;18.690;2022-07-18T08:00:27;4.90;;;1.10;;
71080;SDS011;58740;50.672;18.690;2022-07-18T08:02:58;4.50;;;1.10;;
71080;SDS011;58740;50.672;18.690;2022-07-18T08:05:33;3.70;;;1.10;;
71080;SDS011;58740;50.672;18.690;2022-07-18T08:08:06;4.30;;;1.20;;
71080;SDS011;58740;50.672;18.690;2022-07-18T08:10:34;4.60;;;1.30;;
71080;SDS011;58740;50.672;18.690;2022-07-18T08:13:10;5.40;;;1.30;;
71080;SDS011;58740;50.672;18.690;2022-07-18T08:15:40;5.90;;;1.50;;
71080;SDS011;58740;50.672;18.690;2022-07-18T08:18:08;5.60;;;1.20;;
71080;SDS011;58740;50.672;18.690;2022-07-18T08:20:36;6.50;;;1.90;;
71080;SDS011;58740;50.672;18.690;2022-07-18T08:23:05;6.10;;;1.50;;
71080;SDS011;58740;50.672;18.690;2022-07-18T08:25:40;4.80;;;1.50;;
71080;SDS011;58740;50.672;18.690;2022-07-18T08:28:10;6.50;;;1.70;;
71080;SDS011;58740;50.672;18.690;2022-07-18T08:30:39;5.10;;;1.30;;
71080;SDS011;58740;50.672;18.690;2022-07-18T08:33:07;3.90;;;1.10;;
71080;SDS011;58740;50.672;18.690;2022-07-18T08:35:36;5.00;;;1.50;;
71080;SDS011;58740;50.672;18.690;2022-07-18T08:38:05;4.50;;;1.30;;
71080;SDS011;58740;50.672;18.690;2022-07-18T08:40:33;3.60;;;1.50;;
71080;SDS011;58740;50.672;18.690;2022-07-18T08:43:02;5.30;;;2.00;;
71080;SDS011;58740;50.672;18.690;2022-07-18T08:45:54;5.40;;;1.30;;
71080;SDS011;58740;50.672;18.690;2022-07-18T08:48:24;3.90;;;1.40;;
71080;SDS011;58740;50.672;18.690;2022-07-18T08:50:52;4.90;;;1.40;;
71080;SDS011;58740;50.672;18.690;2022-07-18T08:53:20;2.30;;;1.20;;
71080;SDS011;58740;50.672;18.690;2022-07-18T08:55:48;4.10;;;1.10;;
71080;SDS011;58740;50.672;18.690;2022-07-18T08:58:16;4.50;;;1.10;;
71080;SDS011;58740;50.672;18.690;2022-07-18T09:01:05;4.10;;;1.50;;
71080;SDS011;58740;50.672;18.690;2022-07-18T09:03:34;5.20;;;1.40;;
71080;SDS011;58740;50.672;18.690;2022-07-18T09:06:10;4.60;;;1.80;;
71080;SDS011;58740;50.672;18.690;2022-07-18T09:08:56;3.00;;;1.10;;
71080;SDS011;58740;50.672;18.690;2022-07-18T09:11:25;7.50;;;1.60;;
71080;SDS011;58740;50.672;18.690;2022-07-18T09:19:38;3.00;;;1.20;;
71080;SDS011;58740;50.672;18.690;2022-07-18T09:22:22;2.50;;;1.00;;
71080;SDS011;58740;50.672;18.690;2022-07-18T09:25:06;5.70;;;1.60;;
71080;SDS011;58740;50.672;18.690;2022-07-18T09:30:22;4.40;;;1.30;;
71080;SDS011;58740;50.672;18.690;2022-07-18T09:35:36;3.90;;;1.20;;
71080;SDS011;58740;50.672;18.690;2022-07-18T09:38:15;2.40;;;1.00;;
71080;SDS011;58740;50.672;18.690;2022-07-18T09:40:47;5.70;;;1.60;;
71080;SDS011;58740;50.672;18.690;2022-07-18T09:43:19;5.40;;;1.40;;
71080;SDS011;58740;50.672;18.690;2022-07-18T09:45:54;5.90;;;1.30;;
71080;SDS011;58740;50.672;18.690;2022-07-18T09:48:25;4.80;;;1.30;;
71080;SDS011;58740;50.672;18.690;2022-07-18T09:50:57;6.40;;;2.30;;
71080;SDS011;58740;50.672;18.690;2022-07-18T09:53:34;3.60;;;1.50;;
71080;SDS011;58740;50.672;18.690;2022-07-18T09:56:22;3.40;;;1.20;;
71080;SDS011;58740;50.672;18.690;2022-07-18T09:58:54;3.90;;;1.30;;
71080;SDS011;58740;50.672;18.690;2022-07-18T10:01:24;6.60;;;1.90;;
71080;SDS011;58740;50.672;18.690;2022-07-18T10:03:53;4.00;;;1.20;;
71080;SDS011;58740;50.672;18.690;2022-07-18T10:06:22;5.00;;;1.50;;
71080;SDS011;58740;50.672;18.690;2022-07-18T10:08:53;5.50;;;1.20;;
71080;SDS011;58740;50.672;18.690;2022-07-18T10:11:23;3.00;;;1.30;;
71080;SDS011;58740;50.672;18.690;2022-07-18T10:13:51;3.60;;;1.10;;
71080;SDS011;58740;50.672;18.690;2022-07-18T10:16:20;4.20;;;1.10;;
71080;SDS011;58740;50.672;18.690;2022-07-18T10:18:48;3.70;;;1.10;;
71080;SDS011;58740;50.672;18.690;2022-07-18T10:21:19;3.90;;;1.00;;
71080;SDS011;58740;50.672;18.690;2022-07-18T10:23:47;2.60;;;1.00;;
71080;SDS011;58740;50.672;18.690;2022-07-18T10:26:21;3.60;;;1.20;;
71080;SDS011;58740;50.672;18.690;2022-07-18T10:31:38;3.30;;;1.30;;
71080;SDS011;58740;50.672;18.690;2022-07-18T10:37:26;6.30;;;2.30;;
71080;SDS011;58740;50.672;18.690;2022-07-18T10:39:35;9.00;;;3.10;;
71080;SDS011;58740;50.672;18.690;2022-07-18T10:44:37;3.90;;;1.60;;
71080;SDS011;58740;50.672;18.690;2022-07-18T10:47:13;6.30;;;1.60;;
71080;SDS011;58740;50.672;18.690;2022-07-18T11:00:34;4.50;;;1.50;;
71080;SDS011;58740;50.672;18.690;2022-07-18T11:03:09;4.50;;;1.30;;
71080;SDS011;58740;50.672;18.690;2022-07-18T11:13:40;2.80;;;1.10;;
71080;SDS011;58740;50.672;18.690;2022-07-18T11:16:19;5.20;;;1.20;;
71080;SDS011;58740;50.672;18.690;2022-07-18T11:21:33;3.70;;;1.20;;
71080;SDS011;58740;50.672;18.690;2022-07-18T11:24:10;3.10;;;1.20;;
71080;SDS011;58740;50.672;18.690;2022-07-18T11:26:46;3.10;;;1.30;;
71080;SDS011;58740;50.672;18.690;2022-07-18T11:29:17;3.80;;;1.30;;
71080;SDS011;58740;50.672;18.690;2022-07-18T11:31:53;4.60;;;1.30;;
71080;SDS011;58740;50.672;18.690;2022-07-18T11:34:24;3.70;;;1.20;;
71080;SDS011;58740;50.672;18.690;2022-07-18T11:37:12;3.80;;;1.60;;
71080;SDS011;58740;50.672;18.690;2022-07-18T11:39:40;7.10;;;1.50;;
71080;SDS011;58740;50.672;18.690;2022-07-18T11:42:09;5.10;;;1.50;;
71080;SDS011;58740;50.672;18.690;2022-07-18T11:44:38;3.50;;;1.30;;
71080;SDS011;58740;50.672;18.690;2022-07-18T11:47:10;3.70;;;1.20;;
71080;SDS011;58740;50.672;18.690;2022-07-18T11:49:53;4.00;;;1.30;;
71080;SDS011;58740;50.672;18.690;2022-07-18T11:52:23;3.70;;;1.20;;
71080;SDS011;58740;50.672;18.690;2022-07-18T11:55:00;3.40;;;1.20;;
71080;SDS011;58740;50.672;18.690;2022-07-18T11:57:31;3.50;;;1.30;;
71080;SDS011;58740;50.672;18.690;2022-07-18T12:00:12;3.70;;;1.20;;
71080;SDS011;58740;50.672;18.690;2022-07-18T12:03:20;4.20;;;1.20;;
71080;SDS011;58740;50.672;18.690;2022-07-18T12:05:52;5.00;;;1.80;;
71080;SDS011;58740;50.672;18.690;2022-07-18T12:11:17;9.90;;;4.40;;
71080;SDS011;58740;50.672;18.690;2022-07-18T12:13:55;4.60;;;2.00;;
71080;SDS011;58740;50.672;18.690;2022-07-18T12:16:38;4.00;;;1.20;;
71080;SDS011;58740;50.672;18.690;2022-07-18T12:19:19;5.40;;;2.00;;
71080;SDS011;58740;50.672;18.690;2022-07-18T12:22:04;4.80;;;1.70;;
71080;SDS011;58740;50.672;18.690;2022-07-18T12:27:26;5.20;;;1.70;;
71080;SDS011;58740;50.672;18.690;2022-07-18T12:30:09;3.80;;;1.40;;
71080;SDS011;58740;50.672;18.690;2022-07-18T12:32:57;4.30;;;1.40;;
71080;SDS011;58740;50.672;18.690;2022-07-18T12:35:31;2.70;;;1.20;;
71080;SDS011;58740;50.672;18.690;2022-07-18T12:40:54;3.40;;;1.20;;
71080;SDS011;58740;50.672;18.690;2022-07-18T12:43:32;4.80;;;1.30;;
71080;SDS011;58740;50.672;18.690;2022-07-18T12:46:08;3.90;;;1.30;;
71080;SDS011;58740;50.672;18.690;2022-07-18T12:48:38;6.10;;;2.70;;
71080;SDS011;58740;50.672;18.690;2022-07-18T12:51:08;3.50;;;1.20;;
71080;SDS011;58740;50.672;18.690;2022-07-18T12:53:39;5.00;;;1.80;;
71080;SDS011;58740;50.672;18.690;2022-07-18T12:56:09;4.10;;;1.70;;
71080;SDS011;58740;50.672;18.690;2022-07-18T12:58:37;5.70;;;2.00;;
71080;SDS011;58740;50.672;18.690;2022-07-18T13:01:05;3.10;;;1.30;;
71080;SDS011;58740;50.672;18.690;2022-07-18T13:03:35;4.10;;;1.30;;
71080;SDS011;58740;50.672;18.690;2022-07-18T13:06:03;4.60;;;1.20;;
71080;SDS011;58740;50.672;18.690;2022-07-18T13:08:31;5.70;;;1.60;;
71080;SDS011;58740;50.672;18.690;2022-07-18T13:10:59;4.50;;;1.30;;
71080;SDS011;58740;50.672;18.690;2022-07-18T13:13:27;4.60;;;1.30;;
71080;SDS011;58740;50.672;18.690;2022-07-18T13:15:55;5.60;;;1.60;;
71080;SDS011;58740;50.672;18.690;2022-07-18T13:18:22;4.10;;;1.50;;
71080;SDS011;58740;50.672;18.690;2022-07-18T13:20:50;3.00;;;1.00;;
71080;SDS011;58740;50.672;18.690;2022-07-18T13:23:18;4.60;;;1.60;;
71080;SDS011;58740;50.672;18.690;2022-07-18T13:25:46;5.60;;;1.30;;
71080;SDS011;58740;50.672;18.690;2022-07-18T13:28:14;5.90;;;1.80;;
71080;SDS011;58740;50.672;18.690;2022-07-18T13:30:42;4.30;;;1.40;;
71080;SDS011;58740;50.672;18.690;2022-07-18T13:33:10;3.80;;;1.50;;
71080;SDS011;58740;50.672;18.690;2022-07-18T13:35:37;5.50;;;1.40;;
71080;SDS011;58740;50.672;18.690;2022-07-18T13:38:05;6.60;;;1.20;;
71080;SDS011;58740;50.672;18.690;2022-07-18T13:40:33;2.90;;;1.40;;
71080;SDS011;58740;50.672;18.690;2022-07-18T13:43:00;4.50;;;1.40;;
71080;SDS011;58740;50.672;18.690;2022-07-18T13:45:29;4.50;;;1.20;;
71080;SDS011;58740;50.672;18.690;2022-07-18T13:47:56;4.00;;;1.40;;
71080;SDS011;58740;50.672;18.690;2022-07-18T13:50:24;4.30;;;1.50;;
71080;SDS011;58740;50.672;18.690;2022-07-18T13:52:52;4.10;;;1.30;;
71080;SDS011;58740;50.672;18.690;2022-07-18T13:55:19;4.70;;;1.40;;
71080;SDS011;58740;50.672;18.690;2022-07-18T13:57:47;4.30;;;1.60;;
71080;SDS011;58740;50.672;18.690;2022-07-18T14:00:15;4.70;;;1.70;;
71080;SDS011;58740;50.672;18.690;2022-07-18T14:02:43;5.70;;;1.50;;
71080;SDS011;58740;50.672;18.690;2022-07-18T14:05:11;5.00;;;1.40;;
71080;SDS011;58740;50.672;18.690;2022-07-18T14:07:42;7.20;;;1.70;;
71080;SDS011;58740;50.672;18.690;2022-07-18T14:10:13;4.00;;;1.60;;
71080;SDS011;58740;50.672;18.690;2022-07-18T14:12:43;4.00;;;1.50;;
71080;SDS011;58740;50.672;18.690;2022-07-18T14:15:11;4.10;;;1.60;;
71080;SDS011;58740;50.672;18.690;2022-07-18T14:17:40;5.20;;;1.90;;
71080;SDS011;58740;50.672;18.690;2022-07-18T14:20:09;7.30;;;1.60;;
71080;SDS011;58740;50.672;18.690;2022-07-18T14:22:39;7.20;;;1.30;;
71080;SDS011;58740;50.672;18.690;2022-07-18T14:25:11;5.10;;;1.60;;
71080;SDS011;58740;50.672;18.690;2022-07-18T14:27:43;4.00;;;1.20;;
71080;SDS011;58740;50.672;18.690;2022-07-18T14:30:14;5.40;;;1.60;;
71080;SDS011;58740;50.672;18.690;2022-07-18T14:32:44;5.70;;;1.60;;
71080;SDS011;58740;50.672;18.690;2022-07-18T14:35:12;3.80;;;1.20;;
71080;SDS011;58740;50.672;18.690;2022-07-18T14:37:40;5.70;;;1.70;;
71080;SDS011;58740;50.672;18.690;2022-07-18T14:40:08;4.30;;;1.60;;
71080;SDS011;58740;50.672;18.690;2022-07-18T14:42:36;3.30;;;1.70;;
71080;SDS011;58740;50.672;18.690;2022-07-18T14:45:04;6.50;;;1.70;;
71080;SDS011;58740;50.672;18.690;2022-07-18T14:47:33;4.80;;;1.70;;
71080;SDS011;58740;50.672;18.690;2022-07-18T14:50:04;2.80;;;1.30;;
71080;SDS011;58740;50.672;18.690;2022-07-18T14:52:33;5.20;;;1.70;;
71080;SDS011;58740;50.672;18.690;2022-07-18T14:55:03;4.40;;;1.40;;
71080;SDS011;58740;50.672;18.690;2022-07-18T14:57:32;2.80;;;1.40;;
71080;SDS011;58740;50.672;18.690;2022-07-18T15:00:02;3.60;;;1.80;;
71080;SDS011;58740;50.672;18.690;2022-07-18T15:02:32;4.50;;;1.40;;
71080;SDS011;58740;50.672;18.690;2022-07-18T15:05:00;3.90;;;1.30;;
71080;SDS011;58740;50.672;18.690;2022-07-18T15:07:27;5.60;;;1.80;;
71080;SDS011;58740;50.672;18.690;2022-07-18T15:09:55;4.00;;;1.50;;
71080;SDS011;58740;50.672;18.690;2022-07-18T15:12:23;8.50;;;1.60;;
71080;SDS011;58740;50.672;18.690;2022-07-18T15:14:51;5.60;;;1.40;;
71080;SDS011;58740;50.672;18.690;2022-07-18T15:17:21;4.30;;;1.70;;
71080;SDS011;58740;50.672;18.690;2022-07-18T15:19:51;3.80;;;1.50;;
71080;SDS011;58740;50.672;18.690;2022-07-18T15:22:19;4.70;;;1.40;;
71080;SDS011;58740;50.672;18.690;2022-07-18T15:24:46;4.40;;;1.60;;
71080;SDS011;58740;50.672;18.690;2022-07-18T15:27:14;5.40;;;1.30;;
71080;SDS011;58740;50.672;18.690;2022-07-18T15:29:42;6.10;;;1.60;;
71080;SDS011;58740;50.672;18.690;2022-07-18T15:32:09;3.50;;;1.50;;
71080;SDS011;58740;50.672;18.690;2022-07-18T15:34:38;3.90;;;1.40;;
71080;SDS011;58740;50.672;18.690;2022-07-18T15:37:06;4.60;;;1.60;;
71080;SDS011;58740;50.672;18.690;2022-07-18T15:39:35;4.20;;;1.90;;